Time;durP1;ratioP1;P1;durP2;ratioP2;P2;SDS_P1;SDS_P2;PMS_P1;PMS_P2;Temp;Humidity;BMP_temperature;BMP_pressure;BME280_temperature;BME280_humidity;BME280_pressure;Samples;Min_cycle;Max_cycle;Signal;HPM_P1;HPM_P2
2023/11/02 00:00:35;;;;;;;4.22;4.05;;;;;;;9.65;100.00;98661.81;6032336;23;20813;-78
2023/11/02 00:03:05;;;;;;;4.30;3.90;;;;;;;9.66;100.00;98661.69;6009586;23;20058;-78
2023/11/02 00:05:53;;;;;;;4.05;3.85;;;;;;;9.64;100.00;98657.50;6039076;23;20054;-77
2023/11/02 00:08:21;;;;;;;3.97;3.80;;;;;;;9.71;100.00;98653.44;6003527;23;20091;-77
2023/11/02 00:10:47;;;;;;;5.00;3.90;;;;;;;9.73;100.00;98654.16;6072339;23;20049;-77
2023/11/02 00:13:22;;;;;;;3.92;3.72;;;;;;;9.62;100.00;98625.38;6035537;23;20036;-78
2023/11/02 00:15:48;;;;;;;4.35;4.00;;;;;;;9.34;100.00;98573.50;6066758;23;20490;-78
2023/11/02 00:18:15;;;;;;;4.30;4.10;;;;;;;9.27;100.00;98543.53;6036677;23;20161;-78
2023/11/02 00:20:42;;;;;;;3.90;3.70;;;;;;;9.57;100.00;98570.78;6062793;23;20038;-77
2023/11/02 00:23:20;;;;;;;4.18;3.90;;;;;;;9.81;100.00;98570.53;6005803;23;20458;-78
2023/11/02 00:25:57;;;;;;;4.20;4.00;;;;;;;9.71;100.00;98512.00;6028509;23;20029;-76
2023/11/02 00:28:31;;;;;;;4.10;3.90;;;;;;;10.27;100.00;98556.19;6033847;23;20066;-76
2023/11/02 00:30:58;;;;;;;4.28;4.07;;;;;;;10.33;100.00;98532.09;6065885;23;20021;-76
2023/11/02 00:33:26;;;;;;;3.80;3.60;;;;;;;10.15;100.00;98512.66;6029669;23;20523;-77
2023/11/02 00:35:59;;;;;;;3.83;3.72;;;;;;;10.40;100.00;98503.53;6033745;23;20025;-76
2023/11/02 00:38:31;;;;;;;4.07;3.88;;;;;;;10.17;100.00;98439.97;5999322;23;20307;-76
2023/11/02 00:41:02;;;;;;;4.00;3.80;;;;;;;10.19;100.00;98428.38;6058183;23;20060;-77
2023/11/02 00:43:31;;;;;;;4.20;3.90;;;;;;;10.02;100.00;98373.16;6035965;23;20124;-77
2023/11/02 00:45:58;;;;;;;4.63;4.43;;;;;;;9.68;100.00;98302.75;6002601;23;20023;-76
2023/11/02 00:48:30;;;;;;;4.10;3.90;;;;;;;10.56;100.00;98422.56;6031645;23;20026;-76
2023/11/02 00:51:24;;;;;;;4.30;4.00;;;;;;;10.61;100.00;98397.75;6016457;23;20529;-76
2023/11/02 00:53:57;;;;;;;4.00;3.80;;;;;;;10.35;100.00;98338.75;6058951;23;20026;-76
2023/11/02 00:56:35;;;;;;;4.20;4.00;;;;;;;10.43;100.00;98308.44;6033662;23;20677;-76
2023/11/02 00:59:04;;;;;;;4.00;3.80;;;;;;;10.36;100.00;98295.03;6035595;23;20022;-77
2023/11/02 01:01:38;;;;;;;4.22;4.03;;;;;;;7.98;100.00;97859.75;6037185;23;20089;-77
2023/11/02 01:04:37;;;;;;;4.53;4.32;;;;;;;10.59;100.00;98258.84;6035963;23;20506;-76
2023/11/02 01:07:14;;;;;;;3.90;3.70;;;;;;;10.80;100.00;98252.59;6038281;23;20053;-76
2023/11/02 01:09:47;;;;;;;3.70;3.60;;;;;;;10.83;100.00;98236.59;5998963;23;20026;-76
2023/11/02 01:12:31;;;;;;;3.95;3.75;;;;;;;10.11;100.00;98099.81;6016765;23;20067;-76
2023/11/02 01:15:03;;;;;;;4.10;3.90;;;;;;;10.81;100.00;98189.50;6040760;23;20205;-76
2023/11/02 01:17:40;;;;;;;4.18;3.95;;;;;;;10.81;100.00;98175.56;6013489;23;20041;-75
2023/11/02 01:20:15;;;;;;;4.93;4.63;;;;;;;10.80;100.00;98181.78;6033967;23;20033;-76
2023/11/02 01:22:58;;;;;;;4.32;3.97;;;;;;;10.07;100.00;98065.19;6034573;23;20030;-76
2023/11/02 01:25:27;;;;;;;4.45;4.05;;;;;;;9.69;100.00;98019.78;6031384;23;20026;-76
2023/11/02 01:28:18;;;;;;;4.28;4.07;;;;;;;10.77;100.00;98173.22;6060415;23;20071;-76
2023/11/02 01:31:13;;;;;;;3.83;3.63;;;;;;;10.86;100.00;98162.81;6030269;23;20046;-77
2023/11/02 01:33:41;;;;;;;4.00;3.80;;;;;;;10.85;100.00;98154.13;6041057;23;20019;-76
2023/11/02 01:36:11;;;;;;;4.60;4.40;;;;;;;9.76;100.00;97962.41;6010452;23;20034;-77
2023/11/02 01:38:41;;;;;;;4.05;3.85;;;;;;;10.83;100.00;98147.38;6053350;23;20023;-77
2023/11/02 01:41:18;;;;;;;4.30;4.10;;;;;;;10.86;100.00;98136.59;6017980;23;20038;-76
2023/11/02 01:44:03;;;;;;;4.20;4.00;;;;;;;10.38;100.00;98042.25;6072150;23;20121;-77
2023/11/02 01:46:45;;;;;;;4.10;3.90;;;;;;;10.81;100.00;98123.91;6013074;23;20559;-76
2023/11/02 01:49:31;;;;;;;3.90;3.75;;;;;;;10.44;100.00;98048.69;6039791;23;20071;-77
2023/11/02 01:52:21;;;;;;;4.82;4.57;;;;;;;10.81;100.00;98081.13;6034685;23;20078;-76
2023/11/02 01:55:01;;;;;;;4.10;3.90;;;;;;;10.07;100.00;97978.72;6024112;23;20026;-77
2023/11/02 01:58:14;;;;;;;3.80;3.60;;;;;;;10.74;100.00;98101.84;6038647;23;20194;-77
2023/11/02 02:01:04;;;;;;;4.15;3.95;;;;;;;10.59;100.00;98096.25;5998854;23;20030;-76
2023/11/02 02:03:43;;;;;;;3.88;3.78;;;;;;;10.17;100.00;98020.63;6039821;23;20045;-77
2023/11/02 02:06:23;;;;;;;4.70;4.50;;;;;;;10.75;100.00;98117.44;6030720;23;20026;-77
2023/11/02 02:08:58;;;;;;;3.80;3.70;;;;;;;10.76;100.00;98128.75;6073307;23;20473;-77
2023/11/02 02:11:28;;;;;;;3.72;3.63;;;;;;;10.74;100.00;98115.81;6031347;23;20039;-77
2023/11/02 02:14:20;;;;;;;4.63;4.15;;;;;;;10.75;100.00;98099.06;6076328;23;20054;-76
2023/11/02 02:16:59;;;;;;;4.20;4.00;;;;;;;10.05;100.00;97995.56;6043847;23;20285;-76
2023/11/02 02:19:50;;;;;;;3.85;3.67;;;;;;;10.75;100.00;98091.22;6030255;23;20314;-77
2023/11/02 02:22:25;;;;;;;3.97;3.78;;;;;;;10.74;100.00;98073.00;6054669;23;20484;-76
2023/11/02 02:24:52;;;;;;;3.90;3.75;;;;;;;9.96;100.00;97929.13;6003977;23;20050;-77
2023/11/02 02:27:26;;;;;;;4.22;4.03;;;;;;;10.72;100.00;98048.69;6028146;23;20030;-77
2023/11/02 02:30:11;;;;;;;3.95;3.75;;;;;;;10.72;100.00;98036.44;6008721;23;20090;-77
2023/11/02 02:32:47;;;;;;;4.30;4.10;;;;;;;10.69;100.00;98039.34;6068963;23;20338;-78
2023/11/02 02:35:41;;;;;;;4.30;4.00;;;;;;;10.55;100.00;98024.91;6036478;23;20633;-78
2023/11/02 02:38:16;;;;;;;4.60;4.40;;;;;;;10.02;100.00;97935.59;6065701;23;20026;-78
2023/11/02 02:41:03;;;;;;;3.95;3.75;;;;;;;10.57;100.00;97994.13;6012502;23;20023;-78
2023/11/02 02:43:33;;;;;;;4.20;4.00;;;;;;;9.77;100.00;97833.94;6035837;23;20424;-78
2023/11/02 02:46:04;;;;;;;4.60;4.40;;;;;;;10.77;100.00;97968.59;6066837;23;20042;-76
2023/11/02 02:48:36;;;;;;;4.38;4.15;;;;;;;8.87;100.00;97631.34;6005195;23;20133;-76
2023/11/02 02:51:08;;;;;;;4.18;3.97;;;;;;;10.49;100.00;97878.66;6065453;23;20040;-77
2023/11/02 02:53:39;;;;;;;3.95;3.75;;;;;;;10.36;100.00;97842.34;6038397;23;20096;-77
2023/11/02 02:56:07;;;;;;;4.50;4.30;;;;;;;10.78;100.00;97909.94;6060442;23;20084;-77
2023/11/02 02:58:42;;;;;;;4.03;3.83;;;;;;;10.23;100.00;97826.09;6034144;23;20023;-77
2023/11/02 03:01:10;;;;;;;9.23;4.07;;;;;;;10.84;100.00;97899.78;6030362;23;20060;-77
2023/11/02 03:03:41;;;;;;;4.13;3.80;;;;;;;10.29;100.00;97783.56;6034881;23;20006;-76
2023/11/02 03:06:09;;;;;;;4.63;4.43;;;;;;;10.62;100.00;97789.09;6030539;23;20011;-76
2023/11/02 03:08:41;;;;;;;4.00;3.80;;;;;;;10.38;100.00;97740.75;6036152;23;20021;-76
2023/11/02 03:11:10;;;;;;;8.60;4.00;;;;;;;10.94;100.00;97811.31;6041686;23;20733;-77
2023/11/02 03:13:52;;;;;;;3.90;3.70;;;;;;;10.72;100.00;97786.41;6064908;23;20528;-77
2023/11/02 03:16:20;;;;;;;4.18;3.97;;;;;;;10.92;100.00;97826.38;6005055;23;20033;-77
2023/11/02 03:18:47;;;;;;;3.97;3.78;;;;;;;10.35;100.00;97735.00;6059163;23;20021;-78
2023/11/02 03:21:22;;;;;;;4.10;3.90;;;;;;;10.93;100.00;97833.31;6034153;23;20036;-77
2023/11/02 03:24:05;;;;;;;4.82;4.53;;;;;;;10.94;100.00;97785.06;6057769;23;20030;-76
2023/11/02 03:26:57;;;;;;;4.05;3.85;;;;;;;10.95;100.00;97760.50;6029122;23;20363;-77
2023/11/02 03:29:53;;;;;;;4.05;3.85;;;;;;;10.93;100.00;97728.34;6057582;23;20456;-77
2023/11/02 03:32:33;;;;;;;8.70;4.18;;;;;;;10.72;100.00;97653.47;6012437;23;20039;-76
2023/11/02 03:35:21;;;;;;;4.53;4.32;;;;;;;10.97;100.00;97700.81;6058767;23;20052;-76
2023/11/02 03:38:10;;;;;;;7.28;4.20;;;;;;;10.98;100.00;97676.22;6031806;23;20090;-77
2023/11/02 03:41:01;;;;;;;4.10;3.90;;;;;;;11.00;100.00;97642.75;6057981;23;20034;-76
2023/11/02 03:44:20;;;;;;;4.00;3.80;;;;;;;10.97;100.00;97622.09;6003605;23;20291;-77
2023/11/02 03:46:53;;;;;;;3.75;3.55;;;;;;;11.01;100.00;97620.81;6056571;23;20212;-77
2023/11/02 03:49:53;;;;;;;4.10;3.90;;;;;;;9.08;100.00;97301.53;6001981;23;20189;-78
2023/11/02 03:52:51;;;;;;;5.43;4.95;;;;;;;10.81;100.00;97524.97;6056335;23;20155;-76
2023/11/02 03:55:56;;;;;;;4.05;3.85;;;;;;;11.02;100.00;97564.69;6027413;23;20031;-77
2023/11/02 03:58:54;;;;;;;5.68;5.40;;;;;;;11.03;100.00;97561.09;5974070;23;20368;-77
2023/11/02 04:01:27;;;;;;;6.15;4.07;;;;;;;11.07;100.00;97559.00;6039400;23;20038;-77
2023/11/02 04:04:06;;;;;;;4.90;4.55;;;;;;;10.07;100.00;97380.53;6006257;23;20034;-77
2023/11/02 04:06:43;;;;;;;4.00;3.80;;;;;;;11.09;100.00;97522.91;6040186;23;20081;-76
2023/11/02 04:09:17;;;;;;;3.95;3.75;;;;;;;11.15;100.00;97506.50;6034142;23;20055;-76
2023/11/02 04:12:19;;;;;;;4.00;3.80;;;;;;;11.20;100.00;97462.22;6060878;23;20053;-77
2023/11/02 04:14:54;;;;;;;9.23;3.80;;;;;;;11.17;100.00;97463.38;6007316;23;20085;-76
2023/11/02 04:17:24;;;;;;;4.10;3.90;;;;;;;9.07;100.00;97119.41;6062422;23;20022;-77
2023/11/02 04:19:56;;;;;;;4.50;4.20;;;;;;;8.53;100.00;97062.16;6010514;23;20035;-77
2023/11/02 04:22:29;;;;;;;3.95;3.75;;;;;;;10.47;100.00;97337.09;6026850;23;20068;-77
2023/11/02 04:24:55;;;;;;;3.97;3.80;;;;;;;11.13;100.00;97412.19;6006136;23;20113;-77
2023/11/02 04:27:22;;;;;;;6.38;4.38;;;;;;;11.01;100.00;97368.91;6057809;23;20492;-76
2023/11/02 04:29:49;;;;;;;4.30;4.10;;;;;;;11.09;100.00;97386.44;6029149;23;20026;-77
2023/11/02 04:32:24;;;;;;;4.53;4.22;;;;;;;10.72;100.00;97333.50;6041903;23;20034;-77
2023/11/02 04:34:50;;;;;;;3.80;3.70;;;;;;;10.99;100.00;97318.41;6030556;23;20054;-77
2023/11/02 04:37:17;;;;;;;4.13;3.92;;;;;;;10.98;100.00;97265.09;6062016;23;20018;-77
2023/11/02 04:39:44;;;;;;;4.07;3.88;;;;;;;10.97;100.00;97134.91;6004952;23;20019;-77
2023/11/02 04:42:11;;;;;;;4.60;4.40;;;;;;;10.71;100.00;97090.56;6058665;23;20129;-77
2023/11/02 04:44:38;;;;;;;4.00;3.80;;;;;;;11.01;100.00;97151.13;6032764;23;20338;-77
2023/11/02 04:47:08;;;;;;;4.10;3.90;;;;;;;10.87;100.00;97150.03;6065991;23;20402;-77
2023/11/02 04:49:35;;;;;;;3.97;3.78;;;;;;;10.74;100.00;97069.28;6032920;23;20147;-77
2023/11/02 04:52:04;;;;;;;10.07;4.45;;;;;;;10.95;100.00;97052.94;6030099;23;20405;-77
2023/11/02 04:54:31;;;;;;;5.63;3.90;;;;;;;10.98;100.00;97070.97;6014489;23;20027;-76
2023/11/02 04:57:03;;;;;;;3.92;3.72;;;;;;;11.01;100.00;97103.91;6035995;23;20365;-76
2023/11/02 04:59:44;;;;;;;4.28;4.07;;;;;;;11.02;100.00;97057.47;6038810;23;20034;-76
2023/11/02 05:02:14;;;;;;;4.40;4.10;;;;;;;11.01;100.00;97024.38;6059028;23;20213;-76
2023/11/02 05:04:43;;;;;;;4.10;3.90;;;;;;;10.59;100.00;96987.06;6030706;23;20030;-77
2023/11/02 05:07:10;;;;;;;4.00;3.80;;;;;;;11.05;100.00;97018.59;6059317;23;20503;-77
2023/11/02 05:09:37;;;;;;;9.13;3.65;;;;;;;10.84;100.00;96971.19;6036759;23;20217;-77
2023/11/02 05:12:04;;;;;;;4.70;4.40;;;;;;;10.84;100.00;96964.13;6061755;23;20102;-76
2023/11/02 05:14:30;;;;;;;4.10;3.90;;;;;;;10.83;100.00;96923.16;6028335;23;20131;-77
2023/11/02 05:16:57;;;;;;;3.58;3.47;;;;;;;10.91;100.00;96941.47;6036572;23;20031;-76
2023/11/02 05:19:24;;;;;;;3.97;3.78;;;;;;;10.48;100.00;96912.22;6026755;23;20057;-76
2023/11/02 05:21:50;;;;;;;4.75;4.20;;;;;;;11.04;100.00;96988.09;6029567;23;20033;-77
2023/11/02 05:24:17;;;;;;;3.60;3.50;;;;;;;10.21;99.76;96873.38;6030658;23;20022;-77
2023/11/02 05:26:44;;;;;;;4.65;4.15;;;;;;;11.06;99.69;97035.16;6032183;23;20197;-79
2023/11/02 05:29:10;;;;;;;4.10;3.90;;;;;;;10.58;100.00;96954.78;6000917;23;20227;-76
2023/11/02 05:31:39;;;;;;;3.90;3.70;;;;;;;10.76;98.87;96914.34;6061218;23;20026;-76
2023/11/02 05:34:06;;;;;;;4.57;4.38;;;;;;;10.58;99.05;96875.28;6020946;23;20026;-78
2023/11/02 05:36:33;;;;;;;3.90;3.70;;;;;;;10.74;98.93;96943.38;6042977;23;20015;-76
2023/11/02 05:38:59;;;;;;;4.05;3.85;;;;;;;11.07;100.00;96969.38;6064066;23;20026;-76
2023/11/02 05:41:26;;;;;;;3.95;3.78;;;;;;;11.04;100.00;96935.63;6040389;23;20022;-76
2023/11/02 05:43:53;;;;;;;3.60;3.50;;;;;;;10.50;100.00;96905.03;6072624;23;20062;-77
2023/11/02 05:46:19;;;;;;;3.83;3.70;;;;;;;9.86;100.00;96775.97;6025252;23;20074;-76
2023/11/02 05:48:49;;;;;;;3.65;3.55;;;;;;;10.94;100.00;96912.28;6065387;23;20026;-77
2023/11/02 05:51:15;;;;;;;4.45;4.05;;;;;;;11.12;99.62;96919.81;6033103;23;20276;-76
2023/11/02 05:53:42;;;;;;;4.05;3.85;;;;;;;10.75;99.09;96836.69;6062654;23;20471;-76
2023/11/02 05:56:09;;;;;;;4.18;3.97;;;;;;;10.85;98.28;96844.31;6030650;23;20039;-76
2023/11/02 05:58:36;;;;;;;3.92;3.72;;;;;;;10.75;98.87;96921.41;6063061;23;20123;-76
2023/11/02 06:01:03;;;;;;;3.85;3.65;;;;;;;10.01;99.56;96836.31;6013930;23;20520;-77
2023/11/02 06:03:29;;;;;;;3.75;3.60;;;;;;;10.62;100.00;96981.44;6042496;23;20018;-76
2023/11/02 06:05:57;;;;;;;4.25;4.05;;;;;;;11.24;99.78;97027.81;6066286;23;20046;-76
2023/11/02 06:08:24;;;;;;;3.80;3.70;;;;;;;11.23;100.00;97047.19;6031736;23;20015;-76
2023/11/02 06:10:51;;;;;;;3.90;3.70;;;;;;;10.27;99.84;96891.84;6025487;23;20057;-77
2023/11/02 06:13:19;;;;;;;3.70;3.60;;;;;;;10.22;100.00;96870.56;6032549;23;20122;-76
2023/11/02 06:15:45;;;;;;;3.97;3.78;;;;;;;10.77;100.00;96939.59;6067316;23;20037;-76
2023/11/02 06:18:12;;;;;;;4.30;4.10;;;;;;;11.38;100.00;97021.00;6032986;23;20586;-76
2023/11/02 06:20:38;;;;;;;4.00;3.80;;;;;;;10.73;100.00;96927.81;6054428;23;20101;-76
2023/11/02 06:23:06;;;;;;;4.03;3.83;;;;;;;11.22;100.00;97014.03;6046823;23;20026;-76
2023/11/02 06:25:32;;;;;;;3.80;3.70;;;;;;;11.37;100.00;97045.63;6039303;23;20418;-76
2023/11/02 06:27:59;;;;;;;4.25;4.05;;;;;;;10.91;100.00;96980.00;6041278;23;20029;-76
2023/11/02 06:30:25;;;;;;;4.20;4.00;;;;;;;11.06;100.00;97053.53;6035072;23;20026;-77
2023/11/02 06:32:59;;;;;;;4.75;4.10;;;;;;;10.94;100.00;97048.69;6042634;23;20087;-75
2023/11/02 06:35:38;;;;;;;3.95;3.75;;;;;;;11.35;100.00;97150.78;6039879;23;20049;-75
2023/11/02 06:38:05;;;;;;;4.20;4.00;;;;;;;11.32;100.00;97176.56;6060946;23;20103;-75
2023/11/02 06:40:32;;;;;;;3.92;3.72;;;;;;;11.32;100.00;97161.63;6031107;23;20410;-75
2023/11/02 06:42:59;;;;;;;4.10;3.90;;;;;;;10.90;100.00;97112.13;6056716;23;20361;-76
2023/11/02 06:45:26;;;;;;;4.18;3.97;;;;;;;11.26;100.00;97178.06;6009130;23;20469;-75
2023/11/02 06:47:52;;;;;;;3.83;3.72;;;;;;;10.65;100.00;97098.31;6063273;23;20022;-75
2023/11/02 06:50:19;;;;;;;4.00;3.80;;;;;;;10.82;100.00;97143.66;6038866;23;20272;-76
2023/11/02 06:52:46;;;;;;;4.00;3.80;;;;;;;10.41;100.00;97096.56;6066417;23;20058;-76
2023/11/02 06:55:12;;;;;;;3.70;3.60;;;;;;;10.85;100.00;97180.03;6034481;23;20039;-76
2023/11/02 06:57:42;;;;;;;4.28;4.07;;;;;;;11.18;100.00;97226.19;6060779;23;20062;-76
2023/11/02 07:00:09;;;;;;;5.65;5.38;;;;;;;11.12;100.00;97228.66;6047993;18;20035;-72
2023/11/02 07:02:38;;;;;;;4.30;4.10;;;;;;;11.12;100.00;97232.09;6024343;23;20019;-73
2023/11/02 07:05:05;;;;;;;4.45;4.00;;;;;;;11.17;100.00;97235.03;6008696;23;20047;-74
2023/11/02 07:07:40;;;;;;;5.65;4.40;;;;;;;11.09;100.00;97221.13;6045323;23;20022;-70
2023/11/02 07:10:10;;;;;;;5.25;5.05;;;;;;;11.21;100.00;97242.59;6015267;23;20470;-74
2023/11/02 07:12:37;;;;;;;4.20;4.00;;;;;;;11.33;100.00;97280.59;6021364;23;20030;-71
2023/11/02 07:15:04;;;;;;;4.07;3.88;;;;;;;11.27;100.00;97276.03;6021183;23;20027;-72
2023/11/02 07:17:31;;;;;;;4.07;3.88;;;;;;;11.47;100.00;97295.66;6021518;23;20421;-70
2023/11/02 07:19:57;;;;;;;6.45;5.00;;;;;;;11.35;100.00;97234.81;5988053;23;20031;-72
2023/11/02 07:22:24;;;;;;;4.18;3.97;;;;;;;11.63;100.00;97236.97;6022965;23;20682;-69
2023/11/02 07:24:50;;;;;;;4.47;4.22;;;;;;;11.68;100.00;97199.69;6017646;23;20067;-71
2023/11/02 07:27:17;;;;;;;4.30;4.10;;;;;;;11.63;100.00;97194.97;6021342;23;20158;-70
2023/11/02 07:29:44;;;;;;;4.30;4.10;;;;;;;11.04;100.00;97102.72;5995639;23;20516;-71
2023/11/02 07:32:12;;;;;;;4.95;4.75;;;;;;;11.63;100.00;97188.91;5997567;23;20034;-72
2023/11/02 07:34:38;;;;;;;4.60;4.30;;;;;;;11.67;100.00;97196.25;6021112;23;20145;-71
2023/11/02 07:37:05;;;;;;;4.32;4.13;;;;;;;11.21;100.00;97125.28;5996021;23;20138;-73
2023/11/02 07:39:33;;;;;;;4.40;4.20;;;;;;;11.62;100.00;97188.06;6021890;23;20046;-70
2023/11/02 07:42:02;;;;;;;5.80;5.55;;;;;;;11.55;100.00;97164.31;5998053;23;20441;-71
2023/11/02 07:44:29;;;;;;;4.32;4.13;;;;;;;11.60;100.00;97205.78;5987270;23;20025;-72
2023/11/02 07:46:55;;;;;;;4.15;3.95;;;;;;;11.15;100.00;97147.78;6023136;23;20545;-72
2023/11/02 07:49:22;;;;;;;4.65;4.43;;;;;;;11.40;100.00;97226.41;6017743;23;20089;-72
2023/11/02 07:51:48;;;;;;;4.30;4.10;;;;;;;11.41;100.00;97238.56;6020684;23;20037;-71
2023/11/02 07:54:15;;;;;;;4.53;4.32;;;;;;;11.31;100.00;97228.25;5988641;23;20039;-72
2023/11/02 07:56:44;;;;;;;4.80;4.60;;;;;;;11.35;100.00;97252.38;6023680;23;20464;-70
2023/11/02 07:59:13;;;;;;;4.50;4.30;;;;;;;11.36;100.00;97246.94;5991275;23;20496;-70
2023/11/02 08:01:40;;;;;;;4.20;4.00;;;;;;;11.04;100.00;97205.88;6016241;23;20031;-70
2023/11/02 08:04:06;;;;;;;5.65;5.40;;;;;;;11.32;100.00;97236.94;6017752;23;20105;-71
2023/11/02 08:06:33;;;;;;;4.18;3.97;;;;;;;11.29;100.00;97240.72;6012245;23;20324;-71
2023/11/02 08:09:00;;;;;;;4.47;4.28;;;;;;;11.04;100.00;97195.38;6020601;23;20551;-72
2023/11/02 08:11:27;;;;;;;4.22;4.03;;;;;;;11.29;100.00;97222.38;5996259;23;20026;-72
2023/11/02 08:13:53;;;;;;;4.57;4.38;;;;;;;11.42;100.00;97249.88;6013896;23;20022;-70
2023/11/02 08:16:20;;;;;;;4.60;4.40;;;;;;;11.20;100.00;97217.31;6019300;23;20218;-74
2023/11/02 08:18:47;;;;;;;4.10;3.90;;;;;;;11.44;100.00;97237.38;6016124;23;20688;-73
2023/11/02 08:21:16;;;;;;;4.43;4.22;;;;;;;11.50;100.00;97248.03;6017507;23;20183;-75
2023/11/02 08:23:43;;;;;;;4.40;4.20;;;;;;;11.51;100.00;97236.53;6003078;23;20179;-72
2023/11/02 08:26:12;;;;;;;5.63;5.40;;;;;;;11.55;100.00;97219.47;5984258;23;20087;-71
2023/11/02 08:28:39;;;;;;;4.38;3.90;;;;;;;11.18;100.00;97162.34;6020212;23;20043;-71
2023/11/02 08:31:06;;;;;;;4.60;4.40;;;;;;;11.41;100.00;97177.38;5983721;23;20524;-72
2023/11/02 08:33:32;;;;;;;4.05;3.85;;;;;;;11.50;100.00;97200.75;5993825;23;20363;-72
2023/11/02 08:35:59;;;;;;;5.60;5.38;;;;;;;10.89;100.00;97108.69;5991111;23;20040;-73
2023/11/02 08:38:26;;;;;;;4.65;4.25;;;;;;;11.16;100.00;97157.31;6014206;23;20031;-72
2023/11/02 08:40:52;;;;;;;4.30;4.10;;;;;;;11.24;100.00;97139.88;6019900;23;20065;-71
2023/11/02 08:43:19;;;;;;;4.30;4.10;;;;;;;11.60;100.00;97174.28;6018035;23;20528;-72
2023/11/02 08:45:45;;;;;;;4.50;4.30;;;;;;;11.46;100.00;97156.66;5992051;23;20085;-72
2023/11/02 08:48:19;;;;;;;5.13;4.93;;;;;;;11.38;100.00;97144.38;6013066;23;20145;-73
2023/11/02 08:50:48;;;;;;;4.20;4.00;;;;;;;11.48;100.00;97149.41;5996931;23;20034;-74
2023/11/02 08:53:14;;;;;;;4.75;4.55;;;;;;;11.38;100.00;97147.00;6018599;23;20034;-75
2023/11/02 08:55:41;;;;;;;4.85;4.55;;;;;;;11.37;100.00;97145.38;6015361;23;20150;-73
2023/11/02 08:58:07;;;;;;;6.07;5.78;;;;;;;11.43;100.00;97163.06;5992735;23;20045;-71
2023/11/02 09:00:34;;;;;;;4.40;4.20;;;;;;;11.43;100.00;97155.19;6015607;23;20513;-72
2023/11/02 09:03:01;;;;;;;4.57;4.38;;;;;;;11.40;100.00;97163.41;6014603;23;20348;-74
2023/11/02 09:05:27;;;;;;;4.15;3.95;;;;;;;11.68;100.00;97191.81;6018868;23;20038;-73
2023/11/02 09:07:54;;;;;;;4.57;4.35;;;;;;;11.32;100.00;97105.69;6015946;23;20047;-72
2023/11/02 09:10:25;;;;;;;4.40;4.20;;;;;;;11.85;100.00;97172.34;6004614;23;20027;-72
2023/11/02 09:12:52;;;;;;;4.72;4.25;;;;;;;11.90;100.00;97153.44;5984993;23;20048;-70
2023/11/02 09:15:19;;;;;;;4.50;4.30;;;;;;;11.46;100.00;97083.94;6023883;23;20407;-72
2023/11/02 09:17:48;;;;;;;4.55;4.35;;;;;;;12.04;100.00;97139.53;6017603;23;20092;-71
2023/11/02 09:20:16;;;;;;;4.40;4.20;;;;;;;12.17;100.00;97138.94;5990552;23;20046;-72
2023/11/02 09:22:45;;;;;;;4.50;4.30;;;;;;;11.54;100.00;97012.16;6017716;23;20116;-72
2023/11/02 09:25:16;;;;;;;4.90;4.50;;;;;;;12.48;100.00;97114.31;5993947;23;20027;-74
2023/11/02 09:27:47;;;;;;;5.00;4.70;;;;;;;12.64;100.00;97074.69;6020661;23;20031;-71
2023/11/02 09:30:16;;;;;;;4.82;4.63;;;;;;;12.74;100.00;97033.13;6017664;23;20019;-72
2023/11/02 09:32:46;;;;;;;4.68;4.43;;;;;;;12.92;100.00;97026.66;6029904;23;20086;-74
2023/11/02 09:35:13;;;;;;;5.05;4.65;;;;;;;12.94;100.00;97004.41;6026626;23;20018;-72
2023/11/02 09:37:39;;;;;;;4.53;4.32;;;;;;;12.89;100.00;96996.25;5996784;23;20066;-73
2023/11/02 09:40:06;;;;;;;6.22;5.93;;;;;;;13.00;100.00;96978.34;6025359;23;20442;-72
2023/11/02 09:42:33;;;;;;;4.60;4.35;;;;;;;13.12;100.00;96977.66;5994583;23;20031;-73
2023/11/02 09:45:00;;;;;;;4.60;4.40;;;;;;;12.73;100.00;96902.59;6015269;23;20102;-72
2023/11/02 09:47:27;;;;;;;4.82;4.63;;;;;;;12.07;100.00;96791.47;5999609;23;20823;-72
2023/11/02 09:49:54;;;;;;;4.75;4.55;;;;;;;12.89;100.00;96892.81;6024834;23;20023;-73
2023/11/02 09:52:20;;;;;;;4.60;4.40;;;;;;;12.79;100.00;96869.47;5999692;23;20066;-73
2023/11/02 09:54:47;;;;;;;4.50;4.30;;;;;;;13.16;100.00;96860.44;6008990;23;20331;-70
2023/11/02 09:57:17;;;;;;;5.22;4.82;;;;;;;13.14;100.00;96844.03;6027663;23;20071;-72
2023/11/02 09:59:44;;;;;;;4.70;4.50;;;;;;;13.50;100.00;96818.56;6000464;23;20106;-72
2023/11/02 10:02:13;;;;;;;5.63;5.20;;;;;;;13.30;100.00;96732.38;6011135;23;20737;-73
2023/11/02 10:04:41;;;;;;;4.70;4.50;;;;;;;13.34;98.95;96711.72;6024258;23;20175;-71
2023/11/02 10:07:09;;;;;;;5.28;4.45;;;;;;;13.39;96.39;96669.84;6014301;23;20038;-72
2023/11/02 10:09:35;;;;;;;4.68;4.40;;;;;;;13.76;95.12;96699.31;6024127;23;20649;-74
2023/11/02 10:12:03;;;;;;;5.78;5.47;;;;;;;13.82;94.63;96711.69;6020489;23;20046;-71
2023/11/02 10:14:32;;;;;;;4.65;4.45;;;;;;;13.64;91.53;96643.75;6026020;23;20222;-73
2023/11/02 10:17:04;;;;;;;4.60;4.40;;;;;;;13.86;89.63;96607.50;6025273;23;20084;-73
2023/11/02 10:19:32;;;;;;;4.95;4.65;;;;;;;13.81;87.73;96570.44;6011360;23;20507;-73
2023/11/02 10:22:03;;;;;;;5.80;5.53;;;;;;;13.95;86.57;96548.31;6017914;23;20061;-73
2023/11/02 10:24:31;;;;;;;4.97;4.57;;;;;;;13.80;84.13;96436.22;5985076;23;20401;-74
2023/11/02 10:26:58;;;;;;;5.05;4.50;;;;;;;14.04;82.66;96411.84;6020844;23;20028;-75
2023/11/02 10:29:25;;;;;;;6.03;5.40;;;;;;;13.63;80.83;96326.03;6000086;23;20043;-72
2023/11/02 10:31:54;;;;;;;13.65;4.80;;;;;;;14.17;79.85;96352.97;6015547;23;20492;-74
2023/11/02 10:34:21;;;;;;;5.30;5.00;;;;;;;13.79;78.69;96268.59;5997966;23;20541;-73
2023/11/02 10:36:49;;;;;;;5.20;4.90;;;;;;;13.51;77.72;96233.66;6012860;23;20055;-73
2023/11/02 10:39:23;;;;;;;5.07;4.88;;;;;;;14.31;78.31;96409.94;6001682;23;20015;-73
2023/11/02 10:42:04;;;;;;;4.93;4.55;;;;;;;14.31;78.65;96415.22;6022854;23;20030;-73
2023/11/02 10:44:33;;;;;;;5.35;5.05;;;;;;;14.27;79.64;96448.28;6018016;23;20081;-73
2023/11/02 10:47:01;;;;;;;4.72;4.53;;;;;;;14.34;80.17;96495.72;6017524;23;20054;-73
2023/11/02 10:49:29;;;;;;;5.78;5.20;;;;;;;13.85;78.07;96339.75;5996812;23;20185;-73
2023/11/02 10:51:58;;;;;;;5.35;5.13;;;;;;;14.51;79.16;96440.66;6018623;23;20042;-73
2023/11/02 10:54:49;;;;;;;7.65;5.70;;;;;;;14.63;77.75;96425.81;5992416;23;20354;-71
2023/11/02 10:57:20;;;;;;;5.10;4.90;;;;;;;14.59;76.64;96376.34;6020650;23;20035;-73
2023/11/02 10:59:47;;;;;;;4.90;4.65;;;;;;;14.62;75.60;96360.91;6024072;23;20038;-74
2023/11/02 11:02:18;;;;;;;5.60;5.30;;;;;;;14.72;75.37;96363.06;5989034;23;20145;-73
2023/11/02 11:04:46;;;;;;;16.58;4.65;;;;;;;14.83;73.80;96335.19;6024169;23;20075;-72
2023/11/02 11:07:14;;;;;;;6.07;4.57;;;;;;;14.65;74.38;96339.34;5981366;23;20469;-73
2023/11/02 11:09:41;;;;;;;5.70;4.60;;;;;;;14.61;73.84;96311.78;6021355;23;20491;-71
2023/11/02 11:12:14;;;;;;;6.45;5.90;;;;;;;14.57;74.13;96352.78;6010549;23;20108;-73
2023/11/02 11:14:42;;;;;;;4.65;4.45;;;;;;;14.50;74.81;96373.13;6020668;23;20027;-71
2023/11/02 11:17:10;;;;;;;13.45;4.70;;;;;;;14.42;72.96;96279.22;5996528;23;20031;-72
2023/11/02 11:19:36;;;;;;;4.80;4.60;;;;;;;14.66;73.61;96330.44;6017238;23;20027;-73
2023/11/02 11:22:09;;;;;;;5.82;5.53;;;;;;;14.28;72.63;96212.56;5982588;23;20027;-73
2023/11/02 11:24:38;;;;;;;4.50;4.30;;;;;;;14.77;71.02;96239.19;6011897;23;20031;-72
2023/11/02 11:27:05;;;;;;;5.20;4.80;;;;;;;14.94;69.98;96215.72;6018876;23;20046;-74
2023/11/02 11:29:40;;;;;;;4.90;4.70;;;;;;;14.89;68.42;96125.81;6044265;23;20025;-74
2023/11/02 11:32:29;;;;;;;5.88;5.55;;;;;;;14.60;68.66;96136.06;6005667;23;20042;-75
2023/11/02 11:34:58;;;;;;;4.82;4.63;;;;;;;15.17;67.98;96170.16;6004447;23;20031;-74
2023/11/02 11:37:57;;;;;;;4.80;4.60;;;;;;;15.26;67.05;96173.34;6017366;23;20046;-74
2023/11/02 11:40:29;;;;;;;4.97;4.78;;;;;;;15.31;66.35;96181.38;6011882;23;20019;-73
2023/11/02 11:43:04;;;;;;;5.93;4.90;;;;;;;15.15;66.56;96196.81;5999951;23;20529;-72
2023/11/02 11:45:36;;;;;;;5.10;4.70;;;;;;;15.22;65.69;96169.53;6019459;23;20366;-72
2023/11/02 11:48:05;;;;;;;6.55;5.78;;;;;;;15.35;64.70;96179.91;5997227;23;20026;-73